Latest Coastal Weather Observations for Cocos Island

IDW60701

Issued at 7:43 pm WST Sunday 23 April 2017 (issued every 10 minutes, with the page automatically refreshed every 10 minutes)

About coastal observations | Map of coastal stations | Coastal observations for WA | Marine services | Other Formats
Station Details ID: 200284 Name: COCOS ISLAND AIRPORT Lat: -12.19 Lon: 96.83 Height: 3.0 m
Data from the previous 72 hours. | See also: Recent months at Cocos Island
Date/Time
WST
Temp
°C
Wind Pressure Rain since
9am
mm
Weather Cloud Vis
km
Sea
Height
m
Swell
Dir  Spd
kts
Gust
kts
hPa Trend Height
m
Period
s
Dir
23/07:30pm 26.8 SE 15 19 1013.6 - 0.0 - Partly cloudy 4 - - - -
23/07:27pm 26.8 SE 15 20 1013.6 - 0.0 - Partly cloudy 4 - - - -
23/07:00pm 27.0 SE 15 20 1013.3 - 0.0 - Partly cloudy 10 - - - -
23/06:30pm 27.0 SE 15 18 1013.0 - 0.0 - Partly cloudy 10 - - - -
23/06:00pm 27.3 SE 15 19 1012.6 - 0.0 - Partly cloudy 10 - - - -
23/05:30pm 27.3 SE 16 19 1012.5 - 0.0 - Partly cloudy 10 - - - -
23/05:00pm 27.7 SE 14 18 1012.4 - 0.0 - Mostly clear 10 - - - -
23/04:30pm 28.3 SE 14 18 1012.5 - 0.0 - - 10 - - - -
23/04:00pm 28.0 SE 15 19 1012.7 - 0.0 - - 10 - - - -
23/03:30pm 27.9 SE 16 19 1013.0 - 0.0 - - 10 - - - -
23/03:00pm 27.9 SE 16 20 1013.2 - 0.0 - - 10 - - - -
23/02:30pm 28.2 SE 16 21 1013.4 - 0.0 - Partly cloudy 10 - - - -
23/02:00pm 27.8 ESE 15 19 1013.7 - 0.0 - Partly cloudy 10 - - - -
23/01:30pm 28.1 ESE 16 20 1014.1 - 0.0 - Partly cloudy 10 - - - -
23/01:00pm 27.7 SE 16 20 1014.4 - 0.0 - - 10 - - - -
23/12:30pm 28.0 SE 17 23 1014.7 - 0.0 - Partly cloudy 10 - - - -
23/12:00pm 27.8 ESE 19 23 1015.0 - 0.0 - Partly cloudy 10 - - - -
23/11:40am 27.7 SE 18 21 1015.0 - 0.0 - Partly cloudy 10 - - - -
23/11:30am 27.6 SE 17 21 1015.0 - 0.0 - Partly cloudy 6 - - - -
23/11:21am 28.0 SE 18 22 1015.0 - 0.0 - Partly cloudy 6 - - - -
23/11:00am 27.7 SE 17 23 1014.9 - 0.4 - Cloudy 10 - - - -
23/10:30am 27.4 SE 19 24 1014.8 - 0.4 - Partly cloudy 10 - - - -
23/10:00am 27.1 SE 19 23 1014.5 - 0.4 - Partly cloudy 10 - - - -
23/09:30am 26.7 SE 19 24 1014.1 - 0.4 - Partly cloudy 10 - - - -
23/09:00am 26.5 SE 18 22 1013.9 - 0.4 - Partly cloudy 10 - - - -
23/08:30am 26.6 SE 19 25 1013.8 - 0.4 - Partly cloudy 10 - - - -
23/08:00am 26.5 SE 18 22 1013.5 - 0.4 - Cloudy 10 - - - -
23/07:30am 26.4 SE 19 24 1013.2 - 0.4 - Cloudy 10 - - - -
23/07:00am 26.4 SE 18 23 1012.7 - 0.4 - Partly cloudy 10 - - - -
23/06:30am 26.4 SE 18 22 1012.4 - 0.4 - Partly cloudy 10 - - - -
23/06:00am 26.3 SE 18 22 1012.3 - 0.4 - Partly cloudy 10 - - - -
23/05:30am 26.4 SE 18 22 1012.3 - 0.4 - Partly cloudy 10 - - - -
23/05:00am 26.4 SE 16 20 1012.4 - 0.4 - Cloudy 10 - - - -
23/04:30am 26.6 SE 18 24 1012.6 - 0.4 - Partly cloudy 10 - - - -
23/04:00am 26.5 SE 18 22 1012.6 - 0.4 - Partly cloudy 10 - - - -
23/03:30am 26.4 SE 18 21 1012.8 - 0.4 - Partly cloudy 10 - - - -
23/03:20am 26.5 ESE 17 21 1012.8 - 0.4 - Partly cloudy 10 - - - -
23/03:01am 26.6 SE 17 21 1013.2 - 0.4 - Partly cloudy 3 - - - -
23/03:00am 26.5 SE 17 21 1013.2 - 0.4 - Partly cloudy 10 - - - -
23/02:30am 26.6 SE 18 22 1013.4 - 0.4 - Cloudy 10 - - - -
23/02:00am 26.6 SE 19 26 1013.6 - 0.4 - Cloudy 10 - - - -
23/01:30am 26.7 SE 18 22 1013.8 - 0.4 - Partly cloudy 10 - - - -
23/01:00am 26.7 SE 17 22 1014.0 - 0.4 - Partly cloudy 10 - - - -
23/12:30am 26.7 SE 18 23 1014.0 - 0.4 - Partly cloudy 10 - - - -
23/12:00am 26.7 SE 18 22 1014.1 - 0.4 - Partly cloudy 10 - - - -
 
Date/Time
WST
Temp
°C
Wind Pressure Rain since
9am
mm
Weather Cloud Vis
km
Sea
Height
m
Swell
Dir  Spd
kts
Gust
kts
hPa Trend Height
m
Period
s
Dir
22/11:30pm 26.7 SE 16 21 1014.3 - 0.4 - Partly cloudy 10 - - - -
22/11:01pm 26.5 ESE 15 20 1014.3 - 0.4 - Partly cloudy 10 - - - -
22/11:00pm 26.5 ESE 15 20 1014.2 - 0.4 - Cloudy 10 - - - -
22/10:41pm 26.3 ESE 14 19 1014.3 - 0.2 - Partly cloudy 6 - - - -
22/10:30pm 26.9 ESE 17 21 1014.2 - 0.2 - Partly cloudy 10 - - - -
22/10:00pm 26.8 ESE 17 22 1014.0 - 0.2 - Partly cloudy 10 - - - -
22/09:30pm 26.6 ESE 17 22 1013.5 - 0.2 - Partly cloudy 10 - - - -
22/09:00pm 26.5 ESE 15 20 1013.3 - 0.2 - Cloudy 10 - - - -
22/08:30pm 26.6 ESE 13 19 1013.2 - 0.2 - Partly cloudy 10 - - - -
22/08:00pm 26.1 ESE 16 23 1013.0 - 0.2 - Cloudy 8 - - - -
22/07:30pm 27.1 ESE 16 22 1013.0 - 0.2 - Partly cloudy 10 - - - -
22/07:07pm 27.2 SE 17 21 1012.9 - 0.2 - Partly cloudy 10 - - - -
22/07:00pm 27.3 SE 17 21 1012.9 - 0.2 - Partly cloudy 10 - - - -
22/06:39pm 27.6 ESE 16 21 1012.7 - 0.2 - Partly cloudy 4 - - - -
22/06:30pm 27.6 ESE 17 21 1012.7 - 0.2 - Partly cloudy 10 - - - -
22/06:00pm 27.7 ESE 16 21 1012.5 - 0.2 - Partly cloudy 10 - - - -
22/05:30pm 27.5 ESE 16 20 1012.3 - 0.2 - Partly cloudy 10 - - - -
22/05:00pm 27.7 ESE 17 21 1011.9 - 0.2 - Mostly clear 10 - - - -
22/04:30pm 27.7 ESE 16 20 1012.0 - 0.2 - Partly cloudy 10 - - - -
22/04:00pm 28.1 SE 17 22 1012.1 - 0.2 - Partly cloudy 10 - - - -
22/03:30pm 28.2 ESE 16 21 1012.4 - 0.2 - Partly cloudy 10 - - - -
22/03:00pm 28.0 ESE 15 19 1012.6 - 0.2 - Partly cloudy 10 - - - -
22/02:35pm 28.1 ESE 14 19 1012.8 - 0.2 - Partly cloudy 10 - - - -
22/02:30pm 28.2 ESE 13 18 1012.9 - 0.2 - Partly cloudy 10 - - - -
22/02:24pm 27.8 ESE 13 17 1013.0 - 0.2 - Partly cloudy 10 - - - -
22/02:00pm 28.0 ESE 11 17 1013.4 - 0.2 - Partly cloudy 10 - - - -
22/01:30pm 27.6 ESE 10 14 1013.9 - 0.2 - Partly cloudy 10 - - - -
22/01:00pm 27.9 SE 8 10 1014.1 - 0.2 - Partly cloudy 10 - - - -
22/12:30pm 27.1 SE 14 17 1014.4 - 0.0 - Partly cloudy 10 - - - -
22/12:00pm 26.3 ESE 15 19 1014.8 - 0.0 - Partly cloudy 10 - - - -
22/11:30am 27.3 E 13 18 1014.8 - 0.0 - Partly cloudy 10 - - - -
22/11:04am 27.0 E 11 16 1014.7 - 0.0 - Partly cloudy 10 - - - -
22/11:00am 27.1 E 10 15 1014.6 - 2.6 - Cloudy 10 - - - -
22/10:53am 26.9 E 12 16 1014.7 - 2.6 - Partly cloudy 6 - - - -
22/10:47am 26.7 E 13 17 1014.6 - 2.6 - Partly cloudy 7 - - - -
22/10:34am 26.8 E 14 18 1014.6 - 2.6 - Partly cloudy 10 - - - -
22/10:30am 26.6 E 13 18 1014.5 - 2.6 - Partly cloudy 10 - - - -
22/10:00am 26.5 ESE 11 14 1014.3 - 2.6 - Partly cloudy 10 - - - -
22/09:30am 25.6 ESE 11 16 1014.2 - 2.6 - Partly cloudy 10 - - - -
22/09:15am 25.5 E 11 16 1014.0 - 2.6 - Partly cloudy 10 - - - -
22/09:00am 25.0 E 10 15 1014.0 - 2.6 - Partly cloudy 3 - - - -
22/08:30am 24.7 ESE 13 18 1013.4 - 1.8 - Partly cloudy 6 - - - -
22/08:21am 24.9 ESE 12 19 1013.2 - 1.8 - Partly cloudy 6 - - - -
22/08:00am 25.1 E 14 19 1012.8 - 1.8 - Cloudy 10 - - - -
22/07:30am 25.7 SE 10 14 1012.6 - 1.6 - Partly cloudy 10 - - - -
22/07:00am 25.3 SE 13 17 1012.2 - 1.6 - Partly cloudy 10 - - - -
22/06:30am 25.7 SE 12 16 1011.9 - 1.6 - Partly cloudy 10 - - - -
22/06:00am 25.5 SE 13 18 1011.7 - 1.6 - Partly cloudy 10 - - - -
22/05:30am 25.5 SE 14 17 1012.0 - 1.6 - Partly cloudy 10 - - - -
22/05:04am 26.0 SE 13 17 1011.9 - 1.6 - Partly cloudy 10 - - - -
22/05:00am 25.9 SE 12 17 1011.9 - 1.6 - Cloudy 10 - - - -
22/04:53am 26.0 SE 13 16 1012.0 - 1.6 - Partly cloudy 10 - - - -
22/04:30am 26.0 SE 13 16 1012.1 - 1.6 - Partly cloudy 10 - - - -
22/04:18am 25.8 SE 13 15 1012.2 - 1.6 - Partly cloudy 10 - - - -
22/04:06am 25.8 ESE 11 15 1012.2 - 1.6 - Partly cloudy 10 - - - -
22/04:00am 25.8 SE 12 15 1012.3 - 1.6 - Partly cloudy 10 - - - -
22/03:30am 25.5 SE 13 17 1012.6 - 1.6 - Partly cloudy 10 - - - -
22/03:24am 25.4 SE 13 17 1012.7 - 1.6 - Partly cloudy 10 - - - -
22/03:14am 25.3 SE 15 19 1012.8 - 1.6 - Partly cloudy 10 - - - -
22/03:03am 25.1 SE 15 18 1012.9 - 1.6 - Partly cloudy 6 - - - -
22/03:00am 25.2 SE 14 18 1012.9 - 1.6 - Partly cloudy 8 - - - -
22/02:59am 25.2 SE 15 18 1012.9 - 1.6 - Partly cloudy 8 - - - -
22/02:55am 25.1 SE 14 18 1012.9 - 1.6 - Partly cloudy 10 - - - -
22/02:36am 25.3 SE 16 19 1013.1 - 1.6 - Partly cloudy 6 - - - -
22/02:30am 25.3 SE 16 20 1013.1 - 1.6 - Partly cloudy 10 - - - -
22/02:00am 26.1 SE 15 21 1013.3 - 1.6 - Cloudy 10 - - - -
22/01:30am 26.2 SE 15 21 1013.7 - 1.6 - Partly cloudy 10 - - - -
22/01:18am 26.0 SE 14 18 1013.7 - 1.6 - Partly cloudy 10 - - - -
22/01:00am 25.7 SE 13 18 1013.9 - 1.6 - Partly cloudy 5 - - - -
22/12:59am 25.7 SE 13 18 1013.9 - 1.4 - Partly cloudy 5 - - - -
22/12:30am 26.1 SE 15 18 1014.0 - 1.4 - Partly cloudy 10 - - - -
22/12:00am 26.0 SE 14 19 1014.2 - 1.4 - Partly cloudy 10 - - - -
 
Date/Time
WST
Temp
°C
Wind Pressure Rain since
9am
mm
Weather Cloud Vis
km
Sea
Height
m
Swell
Dir  Spd
kts
Gust
kts
hPa Trend Height
m
Period
s
Dir
21/11:30pm 25.9 SE 14 19 1014.3 - 1.4 - Partly cloudy 10 - - - -
21/11:00pm 25.5 SE 13 17 1014.2 - 1.4 - Cloudy 10 - - - -
21/10:30pm 24.7 SSE 14 21 1014.4 - 1.4 - Partly cloudy 10 - - - -
21/10:00pm 24.8 SE 17 22 1014.2 - 1.4 - Partly cloudy 10 - - - -
21/09:58pm 24.8 SE 17 22 1014.2 - 1.4 - Partly cloudy 10 - - - -
21/09:30pm 25.6 SE 19 24 1013.8 - 1.4 - Partly cloudy 10 - - - -
21/09:28pm 25.7 SE 18 24 1013.8 - 1.4 - Partly cloudy 10 - - - -
21/09:00pm 25.8 SE 15 19 1013.3 - 1.4 - Partly cloudy 10 - - - -
21/08:41pm 25.7 SE 14 19 1013.2 - 1.4 - Partly cloudy 10 - - - -
21/08:30pm 25.7 SE 15 21 1013.0 - 1.4 - Partly cloudy 10 - - - -
21/08:25pm 25.8 SE 14 20 1013.0 - 1.4 - Partly cloudy 10 - - - -
21/08:23pm 25.8 SE 14 19 1013.0 - 1.4 - Partly cloudy 10 - - - -
21/08:08pm 25.7 SE 13 17 1013.0 - 1.4 - Partly cloudy 10 - - - -
21/08:03pm 25.6 SE 13 16 1012.9 - 1.4 - Partly cloudy 10 - - - -
21/08:00pm 25.4 SE 13 16 1012.8 - 1.4 - Cloudy 9 - - - -
21/07:32pm 25.2 SE 17 24 1012.9 - 0.4 - Partly cloudy 4 - - - -
21/07:31pm 25.2 SE 17 24 1012.9 - 0.2 - Partly cloudy 5 - - - -
21/07:30pm 25.3 SE 17 24 1012.8 - 0.2 - Partly cloudy 7 - - - -
21/07:19pm 25.7 SE 17 22 1012.7 - 0.2 - Partly cloudy 10 - - - -
21/07:00pm 25.7 SE 13 17 1012.5 - 0.2 - Partly cloudy 10 - - - -
21/06:55pm 25.6 SE 12 17 1012.5 - 0.2 - Partly cloudy 10 - - - -
21/06:52pm 25.3 SE 12 17 1012.5 - 0.2 - Partly cloudy 10 - - - -
21/06:39pm 25.1 SE 19 25 1012.4 - 0.2 - Partly cloudy 6 - - - -
21/06:37pm 25.3 SE 19 25 1012.4 - 0.0 - Partly cloudy 9 - - - -
21/06:30pm 26.6 SE 17 21 1012.3 - 0.0 - Partly cloudy 7 - - - -
21/06:22pm 26.6 ESE 16 21 1012.3 - 0.0 - Partly cloudy 6 - - - -
21/06:00pm 26.8 SSE 11 16 1012.1 - 0.0 - Partly cloudy 10 - - - -
21/05:30pm 26.9 SE 20 25 1011.9 - 0.0 - Partly cloudy 10 - - - -
21/05:00pm 28.2 SE 15 20 1011.7 - 0.0 - Partly cloudy 10 - - - -
21/04:30pm 28.1 SE 14 18 1011.9 - 0.0 - Partly cloudy 10 - - - -
21/04:00pm 28.0 SE 16 21 1012.0 - 0.0 - Partly cloudy 10 - - - -
21/03:30pm 28.1 SE 15 20 1012.1 - 0.0 - Partly cloudy 10 - - - -
21/03:00pm 28.6 SE 15 21 1012.5 - 0.0 - Partly cloudy 10 - - - -
21/02:30pm 28.4 SE 17 21 1012.8 - 0.0 - Partly cloudy 10 - - - -
21/02:00pm 28.9 SE 15 20 1013.0 - 0.0 - Cloudy 10 - - - -
21/01:30pm 28.1 SE 16 19 1013.4 - 0.0 - Partly cloudy 10 - - - -
21/01:00pm 27.9 SE 15 21 1013.8 - 0.0 - Partly cloudy 10 - - - -
21/12:30pm 28.5 SE 15 20 1014.1 - 0.0 - Mostly clear 10 - - - -
21/12:00pm 27.9 SE 16 21 1014.3 - 0.0 - - 10 - - - -
21/11:30am 27.3 SE 17 20 1014.3 - 0.0 - Mostly clear 10 - - - -
21/11:00am 26.7 SE 17 21 1014.1 - 0.0 - Mostly clear 10 - - - -
21/10:30am 26.6 SE 18 22 1013.9 - 0.0 - Mostly clear 10 - - - -
21/10:19am 26.7 SE 18 24 1013.8 - 0.0 - - 6 - - - -
21/10:00am 26.9 SE 18 24 1013.7 - 0.0 - Mostly clear 10 - - - -
21/09:30am 26.5 SE 19 24 1013.7 - 0.0 - Mostly clear 10 - - - -
21/09:00am 26.2 SE 16 22 1013.7 - 0.0 - Partly cloudy 10 - - - -
21/08:30am 25.9 SE 13 19 1013.4 - 0.0 - Partly cloudy 10 - - - -
21/08:00am 25.9 SE 14 18 1013.1 - 0.0 - Mostly clear 10 - - - -
21/07:30am 25.8 SE 15 20 1013.1 - 0.0 - Partly cloudy 10 - - - -
21/07:00am 25.6 SE 14 19 1012.8 - 0.0 - Partly cloudy 10 - - - -
21/06:30am 25.4 SE 17 23 1012.6 - 0.0 - Partly cloudy 10 - - - -
21/06:00am 26.1 SE 16 19 1012.4 - 0.0 - Partly cloudy 10 - - - -
21/05:30am 25.8 SE 13 16 1012.5 - 0.0 - - 10 - - - -
21/05:00am 26.1 ESE 14 19 1012.5 - 0.0 - Mostly clear 10 - - - -
21/04:30am 26.1 ESE 14 18 1012.6 - 0.0 - Partly cloudy 10 - - - -
21/04:00am 26.2 ESE 14 17 1012.8 - 0.0 - Partly cloudy 10 - - - -
21/03:30am 26.3 ESE 16 21 1013.1 - 0.0 - Partly cloudy 10 - - - -
21/03:00am 26.3 SE 17 21 1013.1 - 0.0 - Partly cloudy 10 - - - -
21/02:30am 26.3 SE 16 20 1013.2 - 0.0 - Partly cloudy 10 - - - -
21/02:00am 26.3 SE 16 21 1013.5 - 0.0 - Cloudy 10 - - - -
21/01:30am 26.3 SE 16 19 1013.8 - 0.0 - Partly cloudy 10 - - - -
21/01:00am 26.4 SE 16 21 1014.0 - 0.0 - Partly cloudy 10 - - - -
21/12:30am 26.4 SE 16 19 1014.1 - 0.0 - Partly cloudy 10 - - - -
21/12:00am 26.5 SE 17 21 1014.2 - 0.0 - Partly cloudy 10 - - - -
 
Date/Time
WST
Temp
°C
Wind Pressure Rain since
9am
mm
Weather Cloud Vis
km
Sea
Height
m
Swell
Dir  Spd
kts
Gust
kts
hPa Trend Height
m
Period
s
Dir
20/11:30pm 26.4 SE 17 21 1014.2 - 0.0 - - 10 - - - -
20/11:00pm 26.4 SE 16 20 1014.1 - 0.0 - - 10 - - - -
20/10:30pm 26.4 SE 15 19 1014.2 - 0.0 - Partly cloudy 10 - - - -
20/10:00pm 26.4 SE 14 17 1014.0 - 0.0 - Partly cloudy 10 - - - -
20/09:30pm 26.4 SE 15 20 1013.7 - 0.0 - Partly cloudy 10 - - - -

Other Formats:

Comma delimited format used in spreadsheet applications
http://www.bom.gov.au/fwo/IDW60701/IDW60701.96996.axf

JavaScript Object Notation format (JSON) in row-major order
http://www.bom.gov.au/fwo/IDW60701/IDW60701.96996.json